Brownfield, ME (04010)

3:39 AM EST on November 27, 2014 (GMT -0500)
misty lane | Change Station
CLOSE
Current Station
Personal Weather Station
Location: Brownfield, ME
Elevation: 404 ft
Nearby Weather Stations
Active Advisory: Winter Storm Warning Active Notice: Public Information Statement

Elev 404 ft 43.94 °N, 70.87 °W | Updated 5 minutes ago

Snow
Snow
31.4 °F
Feels Like 31 °F
N
1.0
Wind Variable Wind from NNW
Gusts 2.0 mph

Today
High -- | Low -- °F
--% Chance of Precip.
Yesterday
High -- | Low -- °F
Precip. -- in
6:53 AM 4:08 PM
Waxing Crescent, 27% visible
Pressure 29.77 in
Visibility 2.0 miles
Clouds
Windchill 31 °F
Dew Point 30 °F
Humidity 96%
Rainfall 0.00 in
Snow Depth Not available.
UV Not available.
Pollen .10 out of 12
Air Quality Not available.
Flu Activity Not available.
SPECI KIZG 270830Z AUTO 35005KT 2SM -SN BR M01/M02 A2977 RMK AO2 P0001 T10061017 $

More Conditions Fewer Conditions

Pressure 29.77 in
Visibility 2.0 miles
Clouds
Windchill 31 °F
Dew Point 30 °F
Humidity 96%
Rainfall 0.00 in
Snow Depth Not available.
UV Not available.
Pollen .10 out of 12
Air Quality Not available.
Flu Activity Not available.
SPECI KIZG 270830Z AUTO 35005KT 2SM -SN BR M01/M02 A2977 RMK AO2 P0001 T10061017 $

More Conditions Fewer Conditions

10-Day Weather Forecast

Almanac

Astronomy

Nov. 27, 2014 Rise Set
Actual Time
Civil Twilight
Nautical Twilight
Astronomical Twilight
Moon
Length of Visible Light
Length of Day
Tomorrow will be .
, % of the Moon is Illuminated

Today's Extremes

State Highs State Lows

Community

WunderPhotos

Upload Photos

1,773,965 photos uploaded!

WunderBlogs® & News

Nearby

Air Quality

  Air Quality AQ Index Pollutant
Not available.

Snow Depth

Station Depth Elevation

Earthquake Activity

City Distance Mag. Time & Date
Minimum magnitude displayed is 2.5.

Coastal Water Temperatures

Place Temperature

Nearby Weather Stations